Time;durP1;ratioP1;P1;durP2;ratioP2;P2;SDS_P1;SDS_P2;PMS_P1;PMS_P2;Temp;Humidity;BMP_temperature;BMP_pressure;BME280_temperature;BME280_humidity;BME280_pressure;Samples;Min_cycle;Max_cycle;Signal;HPM_P1;HPM_P2
2022/05/26 00:01:22;;;;;;;1.38;0.65;;;14.00;99.90;;;;;;4995728;28;20128;-83
2022/05/26 00:03:49;;;;;;;1.80;1.50;;;14.00;99.90;;;;;;5020431;28;20131;-85
2022/05/26 00:06:18;;;;;;;0.85;0.45;;;14.00;99.90;;;;;;4991346;28;20036;-85
2022/05/26 00:08:45;;;;;;;0.93;0.85;;;14.00;99.90;;;;;;5002655;28;20049;-84
2022/05/26 00:11:16;;;;;;;0.47;0.47;;;14.00;99.90;;;;;;5021258;28;20049;-85
2022/05/26 00:13:42;;;;;;;0.63;0.63;;;13.90;99.90;;;;;;5040656;28;20479;-83
2022/05/26 00:16:09;;;;;;;0.77;0.77;;;13.90;99.90;;;;;;5023185;28;20034;-88
2022/05/26 00:18:35;;;;;;;0.50;0.50;;;13.90;99.90;;;;;;5013557;28;20438;-84
2022/05/26 00:21:02;;;;;;;1.45;0.63;;;13.80;99.90;;;;;;5006657;28;20088;-85
2022/05/26 00:23:28;;;;;;;0.93;0.77;;;13.90;99.90;;;;;;5004506;28;20540;-84
2022/05/26 00:25:54;;;;;;;2.00;1.50;;;13.80;99.90;;;;;;4977741;28;20042;-83
2022/05/26 00:28:25;;;;;;;0.50;0.50;;;13.80;99.90;;;;;;5016613;28;20091;-83
2022/05/26 00:30:53;;;;;;;0.50;0.50;;;13.80;99.90;;;;;;5012144;28;20081;-83
2022/05/26 00:33:20;;;;;;;0.40;0.40;;;13.80;99.90;;;;;;5030118;28;20156;-84
2022/05/26 00:35:45;;;;;;;0.30;0.30;;;13.70;99.90;;;;;;5053465;28;20049;-82
2022/05/26 00:38:19;;;;;;;1.08;0.90;;;13.70;99.90;;;;;;5012173;28;20046;-81
2022/05/26 00:40:59;;;;;;;0.65;0.65;;;13.70;99.90;;;;;;5018361;28;20040;-85
2022/05/26 00:43:25;;;;;;;0.57;0.57;;;13.70;99.90;;;;;;5008872;28;20048;-85
2022/05/26 00:46:12;;;;;;;1.08;1.00;;;13.60;99.90;;;;;;5013206;28;20552;-82
2022/05/26 00:48:59;;;;;;;0.38;0.38;;;13.60;99.90;;;;;;5016950;28;20049;-83
2022/05/26 00:51:36;;;;;;;0.52;0.52;;;13.60;99.90;;;;;;4998343;28;20084;-82
2022/05/26 00:54:04;;;;;;;;;;;13.60;99.90;;;;;;5020836;28;20042;-86
2022/05/26 00:56:33;;;;;;;0.50;0.50;;;13.50;99.90;;;;;;5026473;28;19944;-85
2022/05/26 00:59:06;;;;;;;0.70;0.70;;;13.50;99.90;;;;;;5034064;28;20159;-83
2022/05/26 01:01:32;;;;;;;1.95;1.27;;;12.80;99.90;;;;;;5019023;28;20041;-84
2022/05/26 01:04:01;;;;;;;0.88;0.45;;;13.50;99.90;;;;;;4981589;28;20042;-87
2022/05/26 01:06:38;;;;;;;0.43;0.43;;;13.60;99.90;;;;;;4996064;28;20045;-84
2022/05/26 01:09:06;;;;;;;1.60;1.50;;;13.60;99.90;;;;;;4997264;28;20064;-84
2022/05/26 01:11:36;;;;;;;2.50;2.28;;;13.60;99.90;;;;;;5009862;28;20059;-83
2022/05/26 01:14:37;;;;;;;2.05;0.80;;;13.60;99.90;;;;;;4995145;28;20418;-86
2022/05/26 01:17:07;;;;;;;0.60;0.60;;;13.60;99.90;;;;;;4994001;28;20164;-86
2022/05/26 01:19:58;;;;;;;0.85;0.85;;;13.60;99.90;;;;;;5004679;28;20064;-81
2022/05/26 01:23:14;;;;;;;1.08;1.02;;;13.70;99.90;;;;;;5011002;28;20067;-84
2022/05/26 01:26:01;;;;;;;0.55;0.55;;;13.70;99.90;;;;;;4957477;28;20077;-86
2022/05/26 01:28:44;;;;;;;2.58;1.08;;;13.60;99.90;;;;;;4988308;28;20122;-86
2022/05/26 01:31:27;;;;;;;0.52;0.50;;;13.60;99.90;;;;;;5001374;28;20053;-83
2022/05/26 01:34:10;;;;;;;0.55;0.55;;;13.50;99.90;;;;;;5015475;28;20041;-84
2022/05/26 01:37:08;;;;;;;0.50;0.50;;;13.60;99.90;;;;;;5003573;28;20060;-84
2022/05/26 01:40:12;;;;;;;0.73;0.73;;;13.60;99.90;;;;;;5042961;28;20514;-84
2022/05/26 01:42:48;;;;;;;0.77;0.77;;;13.60;99.90;;;;;;5005280;28;20096;-84
2022/05/26 01:45:39;;;;;;;0.38;0.38;;;13.60;99.90;;;;;;5012838;28;20056;-89
2022/05/26 01:48:14;;;;;;;1.70;0.50;;;13.60;99.90;;;;;;5031823;28;20045;-86
2022/05/26 01:50:50;;;;;;;0.95;0.85;;;13.60;99.90;;;;;;4986135;28;20057;-83
2022/05/26 01:53:27;;;;;;;1.03;0.80;;;13.60;99.90;;;;;;5016884;28;20402;-84
2022/05/26 01:56:12;;;;;;;2.58;2.08;;;13.60;99.90;;;;;;5052127;28;20038;-84
2022/05/26 01:58:42;;;;;;;0.40;0.40;;;13.60;99.90;;;;;;5050192;28;20071;-84
2022/05/26 02:01:15;;;;;;;0.40;0.40;;;13.60;99.90;;;;;;5007351;28;20037;-86
2022/05/26 02:03:45;;;;;;;0.88;0.65;;;13.60;99.90;;;;;;5040340;28;20045;-87
2022/05/26 02:06:19;;;;;;;0.50;0.50;;;13.50;99.90;;;;;;5037630;28;20394;-82
2022/05/26 02:09:03;;;;;;;1.50;1.40;;;13.60;99.90;;;;;;5045323;28;20056;-86
2022/05/26 02:11:31;;;;;;;0.50;0.50;;;13.60;99.90;;;;;;4988571;28;20042;-85
2022/05/26 02:14:23;;;;;;;2.47;1.88;;;13.60;99.90;;;;;;5000478;28;20372;-86
2022/05/26 02:16:55;;;;;;;1.00;1.00;;;13.60;99.90;;;;;;5003300;28;20090;-86
2022/05/26 02:19:31;;;;;;;1.02;1.02;;;13.50;99.90;;;;;;5025047;28;20053;-85
2022/05/26 02:22:15;;;;;;;0.52;0.52;;;13.50;99.90;;;;;;4999200;28;20037;-86
2022/05/26 02:24:47;;;;;;;0.30;0.30;;;13.50;99.90;;;;;;5000192;28;20038;-80
2022/05/26 02:27:13;;;;;;;0.52;0.52;;;13.50;99.90;;;;;;5003659;28;20171;-85
2022/05/26 02:29:51;;;;;;;;;;;13.40;99.90;;;;;;5027931;28;20033;-87
2022/05/26 02:32:21;;;;;;;;;;;13.40;99.90;;;;;;5002066;28;19925;-85
2022/05/26 02:34:49;;;;;;;0.40;0.40;;;13.40;99.90;;;;;;5026537;28;19916;-87
2022/05/26 02:37:17;;;;;;;0.40;0.40;;;13.40;99.90;;;;;;5025737;28;20100;-85
2022/05/26 02:39:42;;;;;;;0.40;0.40;;;13.40;99.90;;;;;;5054345;28;20045;-84
2022/05/26 02:42:10;;;;;;;0.50;0.50;;;13.40;99.90;;;;;;5060800;28;20044;-84
2022/05/26 02:44:37;;;;;;;0.35;0.35;;;13.30;99.90;;;;;;5030255;28;20041;-81
2022/05/26 02:47:55;;;;;;;3.22;0.95;;;13.30;99.90;;;;;;5038944;28;20099;-83
2022/05/26 02:50:45;;;;;;;0.40;0.40;;;13.30;99.90;;;;;;4965791;28;20103;-82
2022/05/26 02:53:35;;;;;;;0.50;0.50;;;13.40;99.90;;;;;;4942063;28;20050;-86
2022/05/26 02:56:04;;;;;;;0.57;0.50;;;13.40;99.90;;;;;;4990274;28;20439;-83
2022/05/26 02:58:48;;;;;;;0.82;0.82;;;13.30;99.90;;;;;;5015535;28;20064;-83
2022/05/26 03:01:30;;;;;;;0.60;0.60;;;13.30;99.90;;;;;;5029120;28;20041;-82
2022/05/26 03:04:16;;;;;;;0.88;0.88;;;13.20;99.90;;;;;;5047703;28;20077;-85
2022/05/26 03:06:49;;;;;;;0.40;0.40;;;13.20;99.90;;;;;;4998890;28;20101;-83
2022/05/26 03:09:16;;;;;;;20.05;1.48;;;13.20;99.90;;;;;;5032359;28;20506;-86
2022/05/26 03:12:00;;;;;;;0.50;0.50;;;13.10;99.90;;;;;;4997166;28;20052;-85
2022/05/26 03:14:26;;;;;;;1.05;1.05;;;13.10;99.90;;;;;;4997897;28;20049;-85
2022/05/26 03:16:52;;;;;;;2.17;0.77;;;13.10;99.90;;;;;;4981257;28;20073;-84
2022/05/26 03:19:19;;;;;;;2.78;0.77;;;13.10;99.90;;;;;;4996143;28;20041;-87
2022/05/26 03:21:44;;;;;;;;;;;13.10;99.90;;;;;;5016261;28;20044;-86
2022/05/26 03:24:11;;;;;;;0.70;0.70;;;13.00;99.90;;;;;;4999998;28;20273;-86
2022/05/26 03:26:39;;;;;;;0.40;0.40;;;13.00;99.90;;;;;;4998010;28;20068;-84
2022/05/26 03:29:05;;;;;;;2.92;1.05;;;13.00;99.90;;;;;;4982756;28;20041;-85
2022/05/26 03:31:32;;;;;;;0.40;0.40;;;13.00;99.90;;;;;;5014144;28;20128;-86
2022/05/26 03:42:13;;;;;;;1.45;1.35;;;12.90;99.90;;;;;;5004346;28;20053;-86
2022/05/26 03:44:39;;;;;;;0.40;0.40;;;12.80;99.90;;;;;;4984631;28;20087;-87
2022/05/26 03:47:08;;;;;;;0.95;0.68;;;12.80;99.90;;;;;;5047924;28;20037;-87
2022/05/26 03:49:34;;;;;;;0.30;0.30;;;12.80;99.90;;;;;;5027710;28;20091;-84
2022/05/26 03:51:59;;;;;;;0.32;0.32;;;12.80;99.90;;;;;;5026220;28;20052;-87
2022/05/26 03:54:27;;;;;;;1.60;1.60;;;12.90;99.90;;;;;;5015260;28;20533;-82
2022/05/26 03:56:53;;;;;;;0.35;0.35;;;12.90;99.90;;;;;;4997051;28;20135;-85
2022/05/26 03:59:19;;;;;;;0.75;0.75;;;12.80;99.90;;;;;;5014586;28;20083;-84
2022/05/26 04:01:45;;;;;;;0.50;0.50;;;12.80;99.90;;;;;;5014061;28;20040;-86
2022/05/26 04:04:11;;;;;;;0.28;0.28;;;12.80;99.90;;;;;;4995202;28;20179;-85
2022/05/26 04:06:37;;;;;;;0.40;0.40;;;12.80;99.90;;;;;;5000503;28;20053;-83
2022/05/26 04:09:03;;;;;;;0.50;0.50;;;12.80;99.90;;;;;;5009922;28;20297;-84
2022/05/26 04:11:29;;;;;;;;;;;12.90;99.90;;;;;;5012917;28;20072;-84
2022/05/26 04:13:56;;;;;;;0.32;0.32;;;12.90;99.90;;;;;;5024709;28;19932;-81
2022/05/26 04:16:22;;;;;;;0.40;0.40;;;12.90;99.90;;;;;;5021632;28;20045;-88
2022/05/26 04:18:51;;;;;;;0.30;0.30;;;12.90;99.90;;;;;;4980254;28;20376;-84
2022/05/26 04:21:18;;;;;;;6.03;0.95;;;13.00;99.90;;;;;;5011439;28;20037;-86
2022/05/26 04:23:45;;;;;;;0.50;0.50;;;13.00;99.90;;;;;;4992398;28;20459;-81
2022/05/26 04:26:12;;;;;;;0.35;0.35;;;13.00;99.90;;;;;;5056454;28;20071;-89
2022/05/26 04:28:38;;;;;;;0.77;0.77;;;13.00;99.90;;;;;;4999889;28;20041;-84
2022/05/26 04:31:04;;;;;;;0.30;0.30;;;13.00;99.90;;;;;;4996935;28;20041;-86
2022/05/26 04:33:31;;;;;;;0.40;0.40;;;13.10;99.90;;;;;;5004946;28;20072;-85
2022/05/26 04:35:56;;;;;;;0.30;0.30;;;13.10;99.90;;;;;;5026914;28;20045;-82
2022/05/26 04:38:23;;;;;;;0.60;0.60;;;13.10;99.90;;;;;;4997123;28;20057;-84
2022/05/26 04:41:06;;;;;;;0.38;0.38;;;13.10;99.90;;;;;;5042416;28;21373;-82
2022/05/26 04:43:33;;;;;;;0.38;0.38;;;13.00;99.90;;;;;;4996526;28;20042;-83
2022/05/26 04:46:02;;;;;;;0.82;0.82;;;12.90;99.90;;;;;;5014092;28;20049;-85
2022/05/26 04:48:28;;;;;;;0.40;0.40;;;12.90;99.90;;;;;;4992121;28;20048;-86
2022/05/26 04:50:54;;;;;;;0.50;0.50;;;12.90;99.90;;;;;;5010958;28;20482;-83
2022/05/26 04:53:20;;;;;;;0.65;0.65;;;12.90;99.90;;;;;;4990619;28;20073;-86
2022/05/26 04:55:51;;;;;;;0.30;0.30;;;13.00;99.90;;;;;;5001637;28;20080;-84
2022/05/26 04:58:17;;;;;;;0.40;0.40;;;13.00;99.90;;;;;;4999152;28;20044;-87
2022/05/26 05:00:42;;;;;;;0.38;0.38;;;13.10;99.90;;;;;;5037365;28;20041;-82
2022/05/26 05:03:08;;;;;;;0.20;0.20;;;13.10;99.90;;;;;;5016760;28;20364;-84
2022/05/26 05:05:34;;;;;;;;;;;13.10;99.90;;;;;;5006471;28;20103;-84
2022/05/26 05:07:59;;;;;;;0.60;0.60;;;13.20;99.90;;;;;;5010239;28;19920;-85
2022/05/26 05:10:25;;;;;;;0.90;0.50;;;13.20;99.90;;;;;;4985741;28;20053;-84
2022/05/26 05:12:54;;;;;;;0.30;0.30;;;13.20;99.90;;;;;;5009949;28;20072;-82
2022/05/26 05:15:26;;;;;;;0.40;0.40;;;13.20;99.90;;;;;;5001262;28;20034;-83
2022/05/26 05:17:51;;;;;;;0.40;0.40;;;13.30;99.90;;;;;;5050425;28;20048;-82
2022/05/26 05:20:17;;;;;;;0.40;0.40;;;13.30;99.90;;;;;;5000884;28;20117;-82
2022/05/26 05:22:56;;;;;;;4.20;1.02;;;13.30;99.90;;;;;;5018127;28;20045;-85
2022/05/26 05:25:30;;;;;;;0.40;0.40;;;13.30;99.90;;;;;;5005528;28;20045;-85
2022/05/26 05:28:02;;;;;;;0.90;0.60;;;13.40;99.90;;;;;;5019053;28;20037;-88
2022/05/26 05:30:46;;;;;;;0.40;0.40;;;13.40;99.90;;;;;;5001521;28;20115;-86
2022/05/26 05:33:14;;;;;;;0.40;0.40;;;13.40;99.90;;;;;;5004781;28;20069;-87
2022/05/26 05:35:49;;;;;;;0.50;0.50;;;13.50;99.90;;;;;;5003494;28;20434;-81
2022/05/26 05:38:16;;;;;;;1.10;1.10;;;13.50;99.90;;;;;;5015749;28;20407;-83
2022/05/26 05:40:42;;;;;;;0.30;0.30;;;13.60;99.90;;;;;;5047663;28;20053;-85
2022/05/26 05:43:08;;;;;;;0.70;0.70;;;13.60;99.90;;;;;;5002539;28;20193;-85
2022/05/26 05:45:39;;;;;;;0.52;0.52;;;13.60;99.90;;;;;;4987843;28;20073;-85
2022/05/26 05:48:05;;;;;;;0.30;0.30;;;13.70;99.90;;;;;;5000121;28;20117;-82
2022/05/26 05:50:31;;;;;;;0.40;0.40;;;13.70;99.90;;;;;;5047413;28;20045;-83
2022/05/26 05:52:58;;;;;;;0.30;0.30;;;13.80;99.90;;;;;;4998805;28;20480;-77
2022/05/26 05:55:25;;;;;;;0.40;0.40;;;13.80;99.90;;;;;;5015951;28;20042;-78
2022/05/26 05:57:51;;;;;;;0.30;0.30;;;13.80;99.90;;;;;;5021174;28;20083;-75
2022/05/26 06:00:17;;;;;;;0.40;0.40;;;13.90;99.90;;;;;;5034788;28;20421;-75
2022/05/26 06:02:42;;;;;;;;;;;13.90;99.90;;;;;;5014518;28;20087;-76
2022/05/26 06:05:09;;;;;;;0.30;0.30;;;14.00;99.90;;;;;;5015095;28;19917;-76
2022/05/26 06:07:37;;;;;;;;;;;14.00;99.90;;;;;;4997916;28;20042;-76
2022/05/26 06:10:04;;;;;;;0.30;0.30;;;14.10;99.90;;;;;;5008317;28;19921;-76
2022/05/26 06:12:29;;;;;;;0.40;0.40;;;14.10;99.90;;;;;;5016143;28;20105;-79
2022/05/26 06:14:55;;;;;;;0.60;0.60;;;14.20;99.90;;;;;;5030534;28;20464;-77
2022/05/26 06:17:24;;;;;;;0.40;0.40;;;14.30;99.90;;;;;;5020313;28;20042;-78
2022/05/26 06:19:49;;;;;;;0.32;0.32;;;14.30;99.90;;;;;;5033290;28;20052;-76
2022/05/26 06:22:18;;;;;;;1.45;1.35;;;14.40;99.90;;;;;;5015393;28;20467;-75
2022/05/26 06:24:44;;;;;;;0.40;0.40;;;14.50;99.90;;;;;;5001290;28;20054;-75
2022/05/26 06:29:58;;;;;;;0.40;0.40;;;14.60;99.90;;;;;;5042515;28;20053;-76
2022/05/26 06:37:56;;;;;;;0.50;0.50;;;14.90;99.90;;;;;;5040763;28;20054;-77
2022/05/26 06:40:22;;;;;;;0.30;0.30;;;15.00;99.90;;;;;;5017183;28;20038;-76
2022/05/26 06:42:48;;;;;;;;;;;15.10;99.90;;;;;;5039062;28;20068;-76
2022/05/26 06:45:15;;;;;;;0.30;0.30;;;15.10;99.90;;;;;;5044823;28;20285;-77
2022/05/26 06:47:42;;;;;;;0.30;0.30;;;15.10;99.90;;;;;;5026753;28;20049;-76
2022/05/26 06:50:09;;;;;;;0.68;0.45;;;15.10;99.90;;;;;;5021628;28;20037;-77
2022/05/26 06:52:38;;;;;;;0.85;0.85;;;15.10;99.90;;;;;;5016434;28;20046;-78
2022/05/26 06:55:06;;;;;;;0.40;0.40;;;15.20;99.90;;;;;;5000538;28;20056;-77
2022/05/26 06:57:31;;;;;;;1.40;1.10;;;15.20;99.90;;;;;;5004083;28;20033;-77
2022/05/26 06:59:57;;;;;;;0.30;0.30;;;15.20;99.90;;;;;;5005356;28;20108;-78
2022/05/26 07:02:24;;;;;;;;;;;15.20;99.90;;;;;;5002255;28;20036;-78
2022/05/26 07:04:50;;;;;;;0.40;0.40;;;15.40;99.90;;;;;;5010019;28;20296;-76
2022/05/26 07:07:16;;;;;;;;;;;15.50;99.90;;;;;;5030689;28;20113;-77
2022/05/26 07:09:43;;;;;;;0.38;0.38;;;15.50;99.90;;;;;;5026692;28;19943;-78
2022/05/26 07:12:10;;;;;;;0.38;0.38;;;15.60;99.90;;;;;;5043175;28;20033;-76
2022/05/26 07:14:36;;;;;;;0.85;0.85;;;15.60;99.90;;;;;;5069689;28;20120;-80
2022/05/26 07:17:02;;;;;;;0.35;0.35;;;15.50;99.90;;;;;;5039875;28;20145;-78
2022/05/26 07:19:31;;;;;;;1.02;0.77;;;15.50;99.90;;;;;;5032283;28;20042;-80
2022/05/26 07:21:57;;;;;;;0.40;0.40;;;15.40;99.90;;;;;;5030734;28;20041;-79
2022/05/26 07:24:24;;;;;;;;;;;15.40;99.90;;;;;;5024561;28;20499;-77
2022/05/26 07:26:50;;;;;;;0.35;0.35;;;15.40;99.90;;;;;;5034058;28;19917;-79
2022/05/26 07:29:17;;;;;;;0.40;0.40;;;15.40;99.90;;;;;;5001768;28;20098;-80
2022/05/26 07:31:43;;;;;;;0.30;0.30;;;15.30;99.90;;;;;;5014707;28;20080;-80
2022/05/26 07:34:09;;;;;;;;;;;15.40;99.90;;;;;;4998211;28;20046;-79
2022/05/26 07:42:14;;;;;;;0.52;0.52;;;15.80;99.90;;;;;;5053230;28;20041;-79
2022/05/26 07:44:43;;;;;;;0.40;0.40;;;15.90;99.90;;;;;;5021580;28;20389;-78
2022/05/26 07:47:10;;;;;;;0.35;0.35;;;16.00;99.90;;;;;;5032899;28;20508;-77
2022/05/26 07:49:39;;;;;;;0.30;0.30;;;16.10;99.90;;;;;;5020684;28;20404;-80
2022/05/26 07:52:06;;;;;;;0.30;0.30;;;16.20;99.90;;;;;;5027125;28;20067;-78
2022/05/26 07:54:35;;;;;;;0.30;0.30;;;16.40;99.90;;;;;;5021817;28;20087;-80
2022/05/26 07:57:03;;;;;;;0.60;0.60;;;16.50;99.90;;;;;;5037369;28;20100;-79
2022/05/26 07:59:29;;;;;;;1.45;1.42;;;16.60;99.90;;;;;;5007792;28;20046;-77
2022/05/26 08:01:55;;;;;;;;;;;16.60;99.90;;;;;;4998732;28;20034;-79
2022/05/26 08:04:21;;;;;;;0.30;0.30;;;16.50;99.90;;;;;;5017760;28;20119;-78
2022/05/26 08:06:47;;;;;;;;;;;16.50;99.90;;;;;;5004901;28;20041;-77
2022/05/26 08:09:14;;;;;;;0.60;0.60;;;16.50;99.90;;;;;;5052553;28;20314;-78
2022/05/26 08:11:40;;;;;;;0.90;0.90;;;16.50;99.90;;;;;;5024132;28;20053;-78
2022/05/26 08:14:06;;;;;;;;;;;16.50;99.90;;;;;;4998065;28;20562;-78
2022/05/26 08:16:32;;;;;;;0.30;0.30;;;16.60;99.90;;;;;;5015847;28;19960;-77
2022/05/26 08:18:57;;;;;;;;;;;16.60;99.90;;;;;;5033451;28;20045;-79
2022/05/26 08:21:26;;;;;;;0.30;0.30;;;16.70;99.90;;;;;;5052279;28;19917;-79
2022/05/26 08:23:53;;;;;;;0.43;0.43;;;16.80;99.90;;;;;;5025259;28;20052;-78
2022/05/26 08:26:25;;;;;;;0.30;0.30;;;16.80;99.90;;;;;;5000526;28;20116;-80
2022/05/26 08:28:51;;;;;;;0.30;0.30;;;16.90;99.90;;;;;;5023024;28;20068;-79
2022/05/26 08:31:16;;;;;;;0.65;0.65;;;17.00;99.90;;;;;;5037669;28;20049;-77
2022/05/26 08:33:42;;;;;;;;;;;17.10;99.90;;;;;;5023720;28;20367;-77
2022/05/26 08:36:13;;;;;;;0.43;0.43;;;17.10;99.90;;;;;;5050979;28;19920;-77
2022/05/26 08:38:39;;;;;;;0.40;0.40;;;17.10;99.90;;;;;;5039343;28;20045;-77
2022/05/26 08:41:06;;;;;;;;;;;17.00;99.90;;;;;;5027350;28;20387;-78
2022/05/26 08:43:39;;;;;;;0.50;0.50;;;17.00;99.90;;;;;;5014318;28;19924;-78
2022/05/26 08:46:12;;;;;;;0.32;0.32;;;17.00;99.90;;;;;;5014152;28;20118;-79
2022/05/26 08:48:56;;;;;;;1.27;1.02;;;17.00;99.90;;;;;;5030425;28;20045;-77
2022/05/26 08:52:09;;;;;;;0.45;0.40;;;17.00;99.90;;;;;;5028352;28;20045;-79
2022/05/26 08:54:40;;;;;;;0.55;0.55;;;17.00;99.90;;;;;;5014440;28;20532;-79
2022/05/26 08:57:10;;;;;;;0.35;0.35;;;17.10;99.90;;;;;;5020693;28;20045;-78
2022/05/26 08:59:40;;;;;;;0.35;0.35;;;17.20;99.90;;;;;;5058904;28;20049;-79
2022/05/26 09:02:31;;;;;;;2.95;1.15;;;17.30;99.90;;;;;;5012986;28;20041;-78
2022/05/26 09:05:01;;;;;;;0.30;0.30;;;17.40;99.90;;;;;;5037735;28;20104;-77
2022/05/26 09:13:19;;;;;;;1.55;0.40;;;17.80;99.90;;;;;;5055648;28;20049;-77
2022/05/26 09:15:45;;;;;;;;;;;17.90;99.90;;;;;;5014798;28;20546;-76
2022/05/26 09:18:17;;;;;;;0.40;0.40;;;18.00;99.90;;;;;;5035246;28;19933;-79
2022/05/26 09:20:45;;;;;;;0.30;0.30;;;18.10;99.90;;;;;;5034024;28;20080;-76
2022/05/26 09:23:25;;;;;;;0.30;0.30;;;18.10;99.90;;;;;;5030486;28;20104;-78
2022/05/26 09:26:11;;;;;;;0.30;0.30;;;17.90;99.90;;;;;;5026083;28;20060;-77
2022/05/26 09:28:49;;;;;;;0.30;0.30;;;17.80;99.90;;;;;;5010802;28;20057;-78
2022/05/26 09:31:32;;;;;;;0.30;0.30;;;17.60;99.90;;;;;;5016914;28;20053;-79
2022/05/26 09:34:26;;;;;;;0.40;0.40;;;17.50;99.90;;;;;;5045959;28;20046;-79
2022/05/26 09:36:56;;;;;;;0.30;0.30;;;17.40;99.90;;;;;;5042396;28;20037;-79
2022/05/26 09:39:34;;;;;;;0.60;0.60;;;17.30;99.90;;;;;;5039490;28;20068;-77
2022/05/26 09:42:02;;;;;;;0.43;0.43;;;17.20;99.90;;;;;;5038102;28;20090;-78
2022/05/26 09:44:34;;;;;;;0.30;0.30;;;17.40;99.90;;;;;;5035046;28;20102;-78
2022/05/26 09:47:04;;;;;;;0.30;0.30;;;17.40;99.90;;;;;;5030375;28;20055;-78
2022/05/26 09:49:37;;;;;;;0.40;0.40;;;17.50;99.90;;;;;;5037559;28;20037;-78
2022/05/26 09:52:15;;;;;;;0.30;0.30;;;17.80;99.90;;;;;;5012768;28;20123;-81
2022/05/26 09:54:42;;;;;;;1.63;0.98;;;18.20;99.90;;;;;;5029511;28;20080;-81
2022/05/26 09:57:12;;;;;;;;;;;18.40;99.90;;;;;;5006231;28;20107;-77
2022/05/26 09:59:42;;;;;;;0.30;0.30;;;18.50;99.90;;;;;;5016763;28;19917;-78
2022/05/26 10:02:49;;;;;;;0.30;0.30;;;18.70;99.90;;;;;;5035322;28;20045;-79
2022/05/26 10:05:43;;;;;;;0.30;0.30;;;19.20;99.90;;;;;;4982847;28;20045;-78
2022/05/26 10:08:38;;;;;;;1.05;1.05;;;19.60;99.90;;;;;;5046321;28;20033;-79
2022/05/26 10:11:15;;;;;;;0.30;0.30;;;19.70;99.90;;;;;;5009846;28;20088;-77
2022/05/26 10:14:19;;;;;;;;;;;19.70;99.90;;;;;;5034968;28;20508;-77
2022/05/26 10:16:58;;;;;;;0.30;0.30;;;19.60;99.90;;;;;;4963716;28;19937;-78
2022/05/26 10:20:00;;;;;;;0.30;0.30;;;19.30;99.90;;;;;;4964128;28;20038;-79
2022/05/26 10:22:47;;;;;;;0.40;0.40;;;19.00;99.90;;;;;;4995776;28;20041;-79
2022/05/26 10:25:28;;;;;;;0.30;0.30;;;18.90;99.90;;;;;;5016140;28;20048;-79
2022/05/26 10:28:21;;;;;;;0.30;0.30;;;18.80;99.90;;;;;;5051907;28;20060;-78
2022/05/26 10:31:08;;;;;;;0.30;0.30;;;18.80;99.90;;;;;;5024214;28;20041;-80
2022/05/26 10:33:59;;;;;;;0.80;0.80;;;18.70;99.90;;;;;;5038185;28;20088;-78
2022/05/26 10:36:53;;;;;;;0.57;0.57;;;18.70;99.90;;;;;;5070133;28;20056;-77
2022/05/26 10:39:27;;;;;;;0.45;0.45;;;18.70;99.90;;;;;;5035271;28;20057;-79
2022/05/26 10:42:18;;;;;;;0.30;0.30;;;18.70;99.90;;;;;;5061270;28;20444;-80
2022/05/26 10:44:51;;;;;;;0.40;0.40;;;18.50;99.90;;;;;;4992657;28;20057;-77
2022/05/26 10:47:23;;;;;;;0.38;0.38;;;18.40;99.90;;;;;;5042494;28;20077;-79
2022/05/26 10:50:04;;;;;;;0.30;0.30;;;18.30;99.90;;;;;;5038126;28;20405;-78
2022/05/26 10:52:40;;;;;;;0.30;0.30;;;18.40;99.90;;;;;;5064185;28;20045;-79
2022/05/26 10:55:10;;;;;;;0.40;0.40;;;18.50;99.90;;;;;;5035223;28;20047;-77
2022/05/26 10:57:46;;;;;;;0.30;0.30;;;18.60;99.90;;;;;;5024553;28;20095;-79
2022/05/26 11:00:18;;;;;;;0.40;0.40;;;18.90;99.90;;;;;;5006497;28;20041;-77
2022/05/26 11:03:02;;;;;;;0.30;0.30;;;19.00;99.90;;;;;;5025892;28;20083;-79
2022/05/26 11:05:50;;;;;;;0.30;0.30;;;19.00;99.90;;;;;;5029960;28;20110;-78
2022/05/26 11:08:55;;;;;;;1.10;1.10;;;18.90;99.90;;;;;;5015683;28;20049;-79
2022/05/26 11:11:44;;;;;;;0.32;0.32;;;19.10;99.90;;;;;;4971333;28;20129;-79
2022/05/26 11:17:45;;;;;;;0.40;0.40;;;19.30;99.90;;;;;;5029591;28;20095;-78
2022/05/26 11:20:24;;;;;;;2.50;1.65;;;19.50;99.90;;;;;;5034959;28;20041;-79
2022/05/26 11:22:51;;;;;;;0.30;0.30;;;19.40;99.90;;;;;;5018526;28;20102;-78
2022/05/26 11:25:50;;;;;;;0.40;0.40;;;19.50;99.90;;;;;;5025606;28;20045;-81
2022/05/26 11:28:53;;;;;;;0.30;0.30;;;19.50;99.90;;;;;;4990511;28;20371;-80
2022/05/26 11:37:53;;;;;;;0.40;0.40;;;19.90;99.90;;;;;;5034558;28;20037;-78
2022/05/26 11:40:31;;;;;;;0.40;0.40;;;20.00;99.70;;;;;;4955205;28;20086;-75
2022/05/26 11:42:58;;;;;;;0.40;0.40;;;19.60;99.30;;;;;;4950157;29;20127;-77
2022/05/26 11:45:49;;;;;;;0.30;0.30;;;19.20;99.90;;;;;;4971282;28;20514;-80
2022/05/26 11:48:31;;;;;;;0.40;0.40;;;19.00;99.90;;;;;;5009653;28;20053;-79
2022/05/26 11:51:39;;;;;;;0.40;0.40;;;19.00;99.90;;;;;;5017535;28;20038;-77
2022/05/26 11:54:05;;;;;;;;;;;19.00;99.90;;;;;;5001213;28;20041;-77
2022/05/26 11:56:39;;;;;;;0.30;0.30;;;19.20;99.90;;;;;;5018496;28;19955;-78
2022/05/26 11:59:26;;;;;;;0.65;0.65;;;19.40;99.90;;;;;;5034062;28;20291;-79
2022/05/26 12:01:58;;;;;;;0.35;0.35;;;19.50;99.90;;;;;;5034687;28;20127;-79
2022/05/26 12:04:32;;;;;;;0.30;0.30;;;19.50;99.90;;;;;;5033343;28;20127;-75
2022/05/26 12:07:21;;;;;;;0.50;0.50;;;19.50;99.90;;;;;;5020991;28;20049;-79
2022/05/26 12:09:48;;;;;;;0.30;0.30;;;19.50;99.90;;;;;;5034540;28;20460;-77
2022/05/26 12:12:23;;;;;;;0.43;0.43;;;19.30;99.90;;;;;;5024715;28;20504;-77
2022/05/26 12:14:58;;;;;;;0.30;0.30;;;19.20;99.90;;;;;;5052963;28;20041;-80
2022/05/26 12:17:43;;;;;;;0.40;0.40;;;19.10;99.90;;;;;;5025363;28;20049;-78
2022/05/26 12:20:12;;;;;;;0.55;0.55;;;19.10;99.90;;;;;;5019090;28;20052;-79
2022/05/26 12:22:41;;;;;;;0.30;0.30;;;19.10;99.90;;;;;;5050754;28;20041;-78
2022/05/26 12:25:07;;;;;;;0.30;0.30;;;19.00;99.90;;;;;;5038614;28;20196;-76
2022/05/26 12:27:51;;;;;;;0.40;0.40;;;19.10;99.90;;;;;;5060043;28;20143;-78
2022/05/26 12:30:37;;;;;;;0.30;0.30;;;19.30;99.90;;;;;;5025613;28;20041;-78
2022/05/26 12:33:21;;;;;;;0.30;0.30;;;19.50;99.90;;;;;;5035065;28;20061;-79
2022/05/26 12:36:17;;;;;;;0.30;0.30;;;19.50;99.90;;;;;;5037776;28;20073;-79
2022/05/26 12:39:09;;;;;;;4.65;1.25;;;19.40;99.90;;;;;;5022558;28;20053;-77
2022/05/26 12:41:46;;;;;;;0.40;0.40;;;19.40;99.90;;;;;;5019875;28;20041;-79
2022/05/26 12:44:36;;;;;;;0.30;0.30;;;19.40;99.90;;;;;;5017996;28;20072;-76
2022/05/26 12:47:16;;;;;;;1.55;1.15;;;19.30;99.90;;;;;;5018441;28;20486;-78
2022/05/26 12:50:19;;;;;;;0.28;0.28;;;19.30;99.90;;;;;;5017010;28;20038;-80
2022/05/26 12:52:57;;;;;;;0.40;0.40;;;19.40;99.90;;;;;;5015265;28;20115;-77
2022/05/26 12:55:29;;;;;;;1.02;1.02;;;19.20;99.90;;;;;;5020747;28;20048;-77
2022/05/26 12:58:26;;;;;;;0.40;0.40;;;19.20;99.90;;;;;;5021935;28;20501;-80
2022/05/26 13:00:54;;;;;;;0.50;0.50;;;19.50;99.90;;;;;;5045102;28;20065;-77
2022/05/26 13:03:32;;;;;;;2.28;1.40;;;19.70;99.90;;;;;;5013181;28;20048;-78
2022/05/26 13:06:07;;;;;;;0.20;0.20;;;19.70;99.90;;;;;;5029718;28;20049;-78
2022/05/26 13:09:02;;;;;;;0.50;0.50;;;19.50;99.90;;;;;;5062424;28;20130;-78
2022/05/26 13:12:00;;;;;;;0.40;0.40;;;19.40;99.90;;;;;;5037257;28;20533;-79
2022/05/26 13:14:44;;;;;;;;;;;19.40;99.90;;;;;;4996391;28;20454;-78
2022/05/26 13:17:10;;;;;;;0.40;0.40;;;19.40;99.90;;;;;;5012455;28;19987;-79
2022/05/26 13:19:47;;;;;;;0.40;0.40;;;19.00;99.90;;;;;;5054836;28;20123;-77
2022/05/26 13:22:35;;;;;;;0.30;0.30;;;18.90;99.90;;;;;;5018098;28;20044;-79
2022/05/26 13:25:05;;;;;;;1.08;0.60;;;18.90;99.90;;;;;;5032244;28;20042;-78
2022/05/26 13:27:47;;;;;;;0.40;0.40;;;18.90;99.90;;;;;;5035224;28;20870;-77
2022/05/26 13:33:18;;;;;;;0.30;0.30;;;18.60;99.90;;;;;;5067532;28;20057;-78
2022/05/26 13:36:00;;;;;;;0.30;0.30;;;18.50;99.90;;;;;;5056678;28;20138;-79
2022/05/26 13:38:43;;;;;;;0.30;0.30;;;18.40;99.90;;;;;;5014660;28;20111;-79
2022/05/26 13:41:12;;;;;;;0.30;0.30;;;18.50;99.90;;;;;;5032584;28;20052;-78
2022/05/26 13:43:44;;;;;;;0.40;0.40;;;18.60;99.90;;;;;;5034052;28;20042;-78
2022/05/26 13:46:12;;;;;;;0.30;0.30;;;18.80;99.90;;;;;;5053840;28;20045;-77
2022/05/26 13:48:38;;;;;;;0.40;0.40;;;18.70;99.90;;;;;;5000570;28;20047;-77
2022/05/26 13:51:36;;;;;;;0.43;0.43;;;18.60;99.90;;;;;;5004853;28;20049;-79
2022/05/26 13:54:27;;;;;;;0.60;0.60;;;18.50;99.90;;;;;;5036898;28;20508;-78
2022/05/26 13:56:53;;;;;;;0.30;0.30;;;18.80;99.90;;;;;;5053766;28;20392;-79
2022/05/26 13:59:19;;;;;;;1.05;1.05;;;18.80;99.90;;;;;;5030519;28;20088;-76
2022/05/26 14:01:55;;;;;;;0.70;0.70;;;18.70;99.90;;;;;;5017314;28;20045;-78
2022/05/26 14:04:29;;;;;;;0.30;0.30;;;18.50;99.90;;;;;;5006915;28;20379;-78
2022/05/26 14:06:55;;;;;;;0.40;0.40;;;18.50;99.90;;;;;;5042234;28;20474;-77
2022/05/26 14:09:32;;;;;;;;;;;18.60;99.90;;;;;;5017015;28;20052;-78